createdAt,value
2022-08-29T00:12:57.880Z,63.50
2022-08-29T00:28:03.133Z,63.90
2022-08-29T00:43:09.137Z,63.90
2022-08-29T00:58:19.208Z,64.30
2022-08-29T01:13:27.311Z,64.00
2022-08-29T01:28:33.870Z,64.10
2022-08-29T01:43:44.251Z,64.20
2022-08-29T01:58:51.066Z,64.10
2022-08-29T02:13:57.082Z,64.50
2022-08-29T02:29:02.054Z,65.20
2022-08-29T02:44:07.235Z,65.50
2022-08-29T02:59:12.337Z,66.20
2022-08-29T03:14:16.741Z,65.40
2022-08-29T03:29:21.171Z,67.00
2022-08-29T03:44:26.068Z,66.50
2022-08-29T03:59:33.124Z,66.80
2022-08-29T04:14:37.533Z,66.80
2022-08-29T04:29:41.904Z,67.20
2022-08-29T04:44:46.702Z,67.40
2022-08-29T04:59:55.115Z,67.40
2022-08-29T05:14:59.520Z,68.10
2022-08-29T05:30:06.208Z,69.10
2022-08-29T05:45:11.755Z,68.70
2022-08-29T06:00:17.265Z,68.80
2022-08-29T06:15:22.511Z,69.80
2022-08-29T06:30:27.236Z,69.30
2022-08-29T06:45:31.707Z,69.00
2022-08-29T07:00:36.075Z,68.90
2022-08-29T07:15:40.511Z,69.20
2022-08-29T07:30:45.071Z,69.10
2022-08-29T07:45:49.525Z,68.40
2022-08-29T08:00:53.981Z,68.50
2022-08-29T08:15:58.382Z,68.00
2022-08-29T08:31:06.712Z,68.80
2022-08-29T08:46:11.476Z,68.10
2022-08-29T09:01:23.883Z,68.20
2022-08-29T09:16:32.145Z,68.50
2022-08-29T09:31:37.533Z,69.10
2022-08-29T09:46:42.748Z,68.70
2022-08-29T10:01:47.202Z,68.80
2022-08-29T10:17:20.511Z,69.00
2022-08-29T10:32:36.544Z,71.40
2022-08-29T10:47:45.122Z,69.50
2022-08-29T11:02:56.567Z,69.10
2022-08-29T11:18:08.450Z,67.80
2022-08-29T11:33:21.369Z,67.80
2022-08-29T11:48:34.879Z,67.70
2022-08-29T12:03:48.000Z,67.60
2022-08-29T12:18:53.522Z,67.30
2022-08-29T12:34:14.527Z,66.90
2022-08-29T12:49:25.346Z,65.50
2022-08-29T13:04:33.680Z,65.20
2022-08-29T13:19:38.328Z,64.30
2022-08-29T13:35:06.304Z,62.60
2022-08-29T13:50:12.464Z,59.90
2022-08-29T14:05:17.015Z,56.40
2022-08-29T14:20:22.019Z,51.70
2022-08-29T14:35:31.572Z,47.00
2022-08-29T14:50:36.551Z,44.50
2022-08-29T15:05:42.701Z,42.70
2022-08-29T15:20:49.549Z,41.40
2022-08-29T15:35:54.244Z,39.80
2022-08-29T15:50:58.581Z,39.80
2022-08-29T16:06:04.306Z,39.80
2022-08-29T16:21:09.092Z,41.10
2022-08-29T16:36:14.132Z,42.30
2022-08-29T16:51:19.128Z,46.00
2022-08-29T17:06:23.975Z,45.70
2022-08-29T17:21:28.677Z,46.50
2022-08-29T17:36:34.187Z,48.40
2022-08-29T17:51:39.980Z,49.40
2022-08-29T18:06:45.202Z,51.60
2022-08-29T18:21:51.779Z,51.30
2022-08-29T18:36:56.173Z,56.60
2022-08-29T18:52:00.565Z,53.80
2022-08-29T19:07:05.339Z,54.30
2022-08-29T19:22:11.718Z,54.70
2022-08-29T19:37:16.158Z,54.60
2022-08-29T19:52:20.592Z,54.80
2022-08-29T20:07:25.140Z,55.20
2022-08-29T20:22:30.065Z,56.20
2022-08-29T20:37:34.847Z,56.60
2022-08-29T20:52:39.542Z,56.70
2022-08-29T21:07:47.033Z,56.80
2022-08-29T21:22:51.693Z,57.30
2022-08-29T21:37:56.151Z,57.40
2022-08-29T21:53:00.584Z,58.00
2022-08-29T22:08:05.236Z,58.10
2022-08-29T22:23:10.562Z,58.60
2022-08-29T22:38:15.021Z,58.90
2022-08-29T22:53:19.904Z,58.60
2022-08-29T23:08:27.620Z,59.20
2022-08-29T23:23:32.172Z,58.90
2022-08-29T23:38:36.755Z,59.00
2022-08-29T23:53:42.059Z,59.30
